sensor_id;sensor_type;location;lat;lon;timestamp;temperature;humidity
26907;DHT22;14472;56.880;16.658;2022-10-20T00:00:58;8.40;1.00
26907;DHT22;14472;56.880;16.658;2022-10-20T00:03:25;8.30;1.00
26907;DHT22;14472;56.880;16.658;2022-10-20T00:05:51;8.30;1.00
26907;DHT22;14472;56.880;16.658;2022-10-20T00:08:17;8.30;1.00
26907;DHT22;14472;56.880;16.658;2022-10-20T00:10:52;8.30;1.00
26907;DHT22;14472;56.880;16.658;2022-10-20T00:13:17;8.30;1.00
26907;DHT22;14472;56.880;16.658;2022-10-20T00:15:54;8.20;1.00
26907;DHT22;14472;56.880;16.658;2022-10-20T00:18:21;8.20;1.00
26907;DHT22;14472;56.880;16.658;2022-10-20T00:20:48;8.30;1.00
26907;DHT22;14472;56.880;16.658;2022-10-20T00:23:14;8.20;1.00
26907;DHT22;14472;56.880;16.658;2022-10-20T00:25:40;8.20;1.00
26907;DHT22;14472;56.880;16.658;2022-10-20T00:28:06;8.20;1.00
26907;DHT22;14472;56.880;16.658;2022-10-20T00:30:33;8.20;1.00
26907;DHT22;14472;56.880;16.658;2022-10-20T00:32:59;8.20;1.00
26907;DHT22;14472;56.880;16.658;2022-10-20T00:35:24;8.20;1.00
26907;DHT22;14472;56.880;16.658;2022-10-20T00:37:50;8.20;1.00
26907;DHT22;14472;56.880;16.658;2022-10-20T00:40:16;8.20;1.00
26907;DHT22;14472;56.880;16.658;2022-10-20T00:42:46;8.20;1.00
26907;DHT22;14472;56.880;16.658;2022-10-20T00:45:14;8.20;1.00
26907;DHT22;14472;56.880;16.658;2022-10-20T00:47:56;8.20;1.00
26907;DHT22;14472;56.880;16.658;2022-10-20T00:50:45;8.10;1.00
26907;DHT22;14472;56.880;16.658;2022-10-20T00:53:15;8.10;1.00
26907;DHT22;14472;56.880;16.658;2022-10-20T00:55:41;8.10;1.00
26907;DHT22;14472;56.880;16.658;2022-10-20T00:58:10;8.10;1.00
26907;DHT22;14472;56.880;16.658;2022-10-20T01:00:37;8.10;1.00
26907;DHT22;14472;56.880;16.658;2022-10-20T01:03:06;8.10;1.00
26907;DHT22;14472;56.880;16.658;2022-10-20T01:05:32;8.10;1.00
26907;DHT22;14472;56.880;16.658;2022-10-20T01:07:58;8.10;1.00
26907;DHT22;14472;56.880;16.658;2022-10-20T01:10:29;8.10;1.00
26907;DHT22;14472;56.880;16.658;2022-10-20T01:13:04;8.10;1.00
26907;DHT22;14472;56.880;16.658;2022-10-20T01:18:11;8.10;1.00
26907;DHT22;14472;56.880;16.658;2022-10-20T01:28:59;8.10;1.00
26907;DHT22;14472;56.880;16.658;2022-10-20T01:34:30;8.10;1.00
26907;DHT22;14472;56.880;16.658;2022-10-20T01:36:59;8.10;1.00
26907;DHT22;14472;56.880;16.658;2022-10-20T01:39:30;8.10;1.00
26907;DHT22;14472;56.880;16.658;2022-10-20T01:42:02;8.10;1.00
26907;DHT22;14472;56.880;16.658;2022-10-20T01:44:33;8.10;1.00
26907;DHT22;14472;56.880;16.658;2022-10-20T01:47:00;8.10;1.00
26907;DHT22;14472;56.880;16.658;2022-10-20T01:49:26;8.00;1.00
26907;DHT22;14472;56.880;16.658;2022-10-20T01:51:54;8.00;1.00
26907;DHT22;14472;56.880;16.658;2022-10-20T01:54:21;8.00;1.00
26907;DHT22;14472;56.880;16.658;2022-10-20T02:00:06;8.00;1.00
26907;DHT22;14472;56.880;16.658;2022-10-20T02:05:36;8.10;1.00
26907;DHT22;14472;56.880;16.658;2022-10-20T02:11:00;8.00;1.00
26907;DHT22;14472;56.880;16.658;2022-10-20T02:13:28;8.10;1.00
26907;DHT22;14472;56.880;16.658;2022-10-20T02:15:57;8.00;1.00
26907;DHT22;14472;56.880;16.658;2022-10-20T02:18:33;8.00;1.00
26907;DHT22;14472;56.880;16.658;2022-10-20T02:21:02;8.00;1.00
26907;DHT22;14472;56.880;16.658;2022-10-20T02:23:30;8.00;1.00
26907;DHT22;14472;56.880;16.658;2022-10-20T02:25:58;8.10;1.00
26907;DHT22;14472;56.880;16.658;2022-10-20T02:28:26;8.00;1.00
26907;DHT22;14472;56.880;16.658;2022-10-20T02:30:53;8.00;1.00
26907;DHT22;14472;56.880;16.658;2022-10-20T02:33:21;8.00;1.00
26907;DHT22;14472;56.880;16.658;2022-10-20T02:35:50;8.00;1.00
26907;DHT22;14472;56.880;16.658;2022-10-20T02:38:19;8.00;1.00
26907;DHT22;14472;56.880;16.658;2022-10-20T02:40:45;8.00;1.00
26907;DHT22;14472;56.880;16.658;2022-10-20T02:43:11;7.90;1.00
26907;DHT22;14472;56.880;16.658;2022-10-20T02:45:37;7.90;1.00
26907;DHT22;14472;56.880;16.658;2022-10-20T02:48:03;7.90;1.00
26907;DHT22;14472;56.880;16.658;2022-10-20T02:50:29;7.90;1.00
26907;DHT22;14472;56.880;16.658;2022-10-20T02:52:55;7.90;1.00
26907;DHT22;14472;56.880;16.658;2022-10-20T02:55:21;7.90;1.00
26907;DHT22;14472;56.880;16.658;2022-10-20T02:57:46;7.90;1.00
26907;DHT22;14472;56.880;16.658;2022-10-20T03:00:12;7.90;1.00
26907;DHT22;14472;56.880;16.658;2022-10-20T03:02:38;7.90;1.00
26907;DHT22;14472;56.880;16.658;2022-10-20T03:05:04;7.90;1.00
26907;DHT22;14472;56.880;16.658;2022-10-20T03:07:30;7.90;1.00
26907;DHT22;14472;56.880;16.658;2022-10-20T03:09:56;7.90;1.00
26907;DHT22;14472;56.880;16.658;2022-10-20T03:12:22;7.90;1.00
26907;DHT22;14472;56.880;16.658;2022-10-20T03:14:47;7.90;1.00
26907;DHT22;14472;56.880;16.658;2022-10-20T03:17:13;7.90;1.00
26907;DHT22;14472;56.880;16.658;2022-10-20T03:19:39;7.90;1.00
26907;DHT22;14472;56.880;16.658;2022-10-20T03:22:05;7.90;1.00
26907;DHT22;14472;56.880;16.658;2022-10-20T03:24:31;7.90;1.00
26907;DHT22;14472;56.880;16.658;2022-10-20T03:26:57;7.90;1.00
26907;DHT22;14472;56.880;16.658;2022-10-20T03:29:23;7.90;1.00
26907;DHT22;14472;56.880;16.658;2022-10-20T03:31:48;7.90;1.00
26907;DHT22;14472;56.880;16.658;2022-10-20T03:34:14;7.80;1.00
26907;DHT22;14472;56.880;16.658;2022-10-20T03:36:40;7.80;1.00
26907;DHT22;14472;56.880;16.658;2022-10-20T03:39:05;7.80;1.00
26907;DHT22;14472;56.880;16.658;2022-10-20T03:41:31;7.80;1.00
26907;DHT22;14472;56.880;16.658;2022-10-20T03:43:57;7.80;1.00
26907;DHT22;14472;56.880;16.658;2022-10-20T03:46:22;7.70;1.00
26907;DHT22;14472;56.880;16.658;2022-10-20T03:48:48;7.70;1.00
26907;DHT22;14472;56.880;16.658;2022-10-20T03:51:14;7.70;1.00
26907;DHT22;14472;56.880;16.658;2022-10-20T03:53:40;7.70;1.00
26907;DHT22;14472;56.880;16.658;2022-10-20T03:56:07;7.70;1.00
26907;DHT22;14472;56.880;16.658;2022-10-20T03:58:33;7.70;1.00
26907;DHT22;14472;56.880;16.658;2022-10-20T04:00:59;7.70;1.00
26907;DHT22;14472;56.880;16.658;2022-10-20T04:03:25;7.70;1.00
26907;DHT22;14472;56.880;16.658;2022-10-20T04:05:51;7.70;1.00
26907;DHT22;14472;56.880;16.658;2022-10-20T04:08:17;7.70;1.00
26907;DHT22;14472;56.880;16.658;2022-10-20T04:10:42;7.70;1.00
26907;DHT22;14472;56.880;16.658;2022-10-20T04:13:08;7.70;1.00
26907;DHT22;14472;56.880;16.658;2022-10-20T04:15:34;7.70;1.00
26907;DHT22;14472;56.880;16.658;2022-10-20T04:17:59;7.70;1.00
26907;DHT22;14472;56.880;16.658;2022-10-20T04:20:25;7.70;1.00
26907;DHT22;14472;56.880;16.658;2022-10-20T04:22:51;7.70;1.00
26907;DHT22;14472;56.880;16.658;2022-10-20T04:25:17;7.70;1.00
26907;DHT22;14472;56.880;16.658;2022-10-20T04:27:42;7.70;1.00
26907;DHT22;14472;56.880;16.658;2022-10-20T04:30:09;7.70;1.00
26907;DHT22;14472;56.880;16.658;2022-10-20T04:32:35;7.70;1.00
26907;DHT22;14472;56.880;16.658;2022-10-20T04:35:01;7.70;1.00
26907;DHT22;14472;56.880;16.658;2022-10-20T04:37:27;7.70;1.00
26907;DHT22;14472;56.880;16.658;2022-10-20T04:39:52;7.80;1.00
26907;DHT22;14472;56.880;16.658;2022-10-20T04:42:18;7.80;1.00
26907;DHT22;14472;56.880;16.658;2022-10-20T04:44:44;7.80;1.00
26907;DHT22;14472;56.880;16.658;2022-10-20T04:47:11;7.80;1.00
26907;DHT22;14472;56.880;16.658;2022-10-20T04:49:37;7.80;1.00
26907;DHT22;14472;56.880;16.658;2022-10-20T04:52:04;7.80;1.00
26907;DHT22;14472;56.880;16.658;2022-10-20T04:54:30;7.90;1.00
26907;DHT22;14472;56.880;16.658;2022-10-20T04:56:55;7.90;1.00
26907;DHT22;14472;56.880;16.658;2022-10-20T04:59:21;7.90;1.00
26907;DHT22;14472;56.880;16.658;2022-10-20T05:01:47;7.90;1.00
26907;DHT22;14472;56.880;16.658;2022-10-20T05:04:13;8.00;1.00
26907;DHT22;14472;56.880;16.658;2022-10-20T05:06:45;8.00;1.00
26907;DHT22;14472;56.880;16.658;2022-10-20T05:09:11;8.10;1.00
26907;DHT22;14472;56.880;16.658;2022-10-20T05:11:37;8.00;1.00
26907;DHT22;14472;56.880;16.658;2022-10-20T05:14:03;8.10;1.00
26907;DHT22;14472;56.880;16.658;2022-10-20T05:16:29;8.10;1.00
26907;DHT22;14472;56.880;16.658;2022-10-20T05:18:54;8.10;1.00
26907;DHT22;14472;56.880;16.658;2022-10-20T05:21:25;8.10;1.00
26907;DHT22;14472;56.880;16.658;2022-10-20T05:23:59;8.20;1.00
26907;DHT22;14472;56.880;16.658;2022-10-20T05:26:25;8.20;1.00
26907;DHT22;14472;56.880;16.658;2022-10-20T05:28:52;8.20;1.00
26907;DHT22;14472;56.880;16.658;2022-10-20T05:31:20;8.20;1.00
26907;DHT22;14472;56.880;16.658;2022-10-20T05:33:49;8.20;1.00
26907;DHT22;14472;56.880;16.658;2022-10-20T05:36:17;8.20;1.00
26907;DHT22;14472;56.880;16.658;2022-10-20T05:38:44;8.30;1.00
26907;DHT22;14472;56.880;16.658;2022-10-20T05:41:18;8.30;1.00
26907;DHT22;14472;56.880;16.658;2022-10-20T05:43:49;8.30;1.00
26907;DHT22;14472;56.880;16.658;2022-10-20T05:46:15;8.30;1.00
26907;DHT22;14472;56.880;16.658;2022-10-20T05:48:41;8.30;1.00
26907;DHT22;14472;56.880;16.658;2022-10-20T05:51:11;8.30;1.00
26907;DHT22;14472;56.880;16.658;2022-10-20T05:53:38;8.20;1.00
26907;DHT22;14472;56.880;16.658;2022-10-20T05:56:09;8.20;1.00
26907;DHT22;14472;56.880;16.658;2022-10-20T05:58:35;8.20;1.00
26907;DHT22;14472;56.880;16.658;2022-10-20T06:01:09;8.20;1.00
26907;DHT22;14472;56.880;16.658;2022-10-20T06:03:36;8.20;1.00
26907;DHT22;14472;56.880;16.658;2022-10-20T06:06:03;8.20;1.00
26907;DHT22;14472;56.880;16.658;2022-10-20T06:08:33;8.20;1.00
26907;DHT22;14472;56.880;16.658;2022-10-20T06:11:05;8.20;1.00
26907;DHT22;14472;56.880;16.658;2022-10-20T06:13:31;8.20;1.00
26907;DHT22;14472;56.880;16.658;2022-10-20T06:16:09;8.20;1.00
26907;DHT22;14472;56.880;16.658;2022-10-20T06:18:35;8.20;1.00
26907;DHT22;14472;56.880;16.658;2022-10-20T06:21:08;8.20;1.00
26907;DHT22;14472;56.880;16.658;2022-10-20T06:23:35;8.20;1.00
26907;DHT22;14472;56.880;16.658;2022-10-20T06:26:06;8.20;1.00
26907;DHT22;14472;56.880;16.658;2022-10-20T06:28:33;8.20;1.00
26907;DHT22;14472;56.880;16.658;2022-10-20T06:30:59;8.20;1.00
26907;DHT22;14472;56.880;16.658;2022-10-20T06:33:28;8.20;1.00
26907;DHT22;14472;56.880;16.658;2022-10-20T06:35:58;8.20;1.00
26907;DHT22;14472;56.880;16.658;2022-10-20T06:38:25;8.30;1.00
26907;DHT22;14472;56.880;16.658;2022-10-20T06:40:51;8.30;1.00
26907;DHT22;14472;56.880;16.658;2022-10-20T06:43:17;8.30;1.00
26907;DHT22;14472;56.880;16.658;2022-10-20T06:45:42;8.40;1.00
26907;DHT22;14472;56.880;16.658;2022-10-20T06:48:08;8.40;1.00
26907;DHT22;14472;56.880;16.658;2022-10-20T06:50:34;8.40;1.00
26907;DHT22;14472;56.880;16.658;2022-10-20T06:53:00;8.50;1.00
26907;DHT22;14472;56.880;16.658;2022-10-20T06:55:25;8.50;1.00
26907;DHT22;14472;56.880;16.658;2022-10-20T06:57:51;8.60;1.00
26907;DHT22;14472;56.880;16.658;2022-10-20T07:00:17;8.60;1.00
26907;DHT22;14472;56.880;16.658;2022-10-20T07:02:42;8.70;1.00
26907;DHT22;14472;56.880;16.658;2022-10-20T07:05:08;8.80;1.00
26907;DHT22;14472;56.880;16.658;2022-10-20T07:07:34;8.80;1.00
26907;DHT22;14472;56.880;16.658;2022-10-20T07:09:59;8.90;1.00
26907;DHT22;14472;56.880;16.658;2022-10-20T07:12:25;9.00;1.00
26907;DHT22;14472;56.880;16.658;2022-10-20T07:14:51;9.00;1.00
26907;DHT22;14472;56.880;16.658;2022-10-20T07:17:16;9.10;1.00
26907;DHT22;14472;56.880;16.658;2022-10-20T07:19:42;9.20;1.00
26907;DHT22;14472;56.880;16.658;2022-10-20T07:22:08;9.30;1.00
26907;DHT22;14472;56.880;16.658;2022-10-20T07:24:33;9.40;1.00
26907;DHT22;14472;56.880;16.658;2022-10-20T07:26:59;9.50;1.00
26907;DHT22;14472;56.880;16.658;2022-10-20T07:29:25;9.50;1.00
26907;DHT22;14472;56.880;16.658;2022-10-20T07:31:50;9.60;1.00
26907;DHT22;14472;56.880;16.658;2022-10-20T07:34:17;9.60;1.00
26907;DHT22;14472;56.880;16.658;2022-10-20T07:36:44;9.70;1.00
26907;DHT22;14472;56.880;16.658;2022-10-20T07:39:11;9.80;1.00
26907;DHT22;14472;56.880;16.658;2022-10-20T07:41:38;9.80;1.00
26907;DHT22;14472;56.880;16.658;2022-10-20T07:44:04;9.90;1.00
26907;DHT22;14472;56.880;16.658;2022-10-20T07:46:30;10.00;1.00
26907;DHT22;14472;56.880;16.658;2022-10-20T07:48:55;10.10;1.00
26907;DHT22;14472;56.880;16.658;2022-10-20T07:53:55;10.20;1.00
26907;DHT22;14472;56.880;16.658;2022-10-20T07:56:22;10.30;1.00
26907;DHT22;14472;56.880;16.658;2022-10-20T07:58:48;10.40;1.00
26907;DHT22;14472;56.880;16.658;2022-10-20T08:01:14;10.50;1.00
26907;DHT22;14472;56.880;16.658;2022-10-20T08:03:40;10.60;1.00
26907;DHT22;14472;56.880;16.658;2022-10-20T08:06:06;10.70;1.00
26907;DHT22;14472;56.880;16.658;2022-10-20T08:08:32;10.80;1.00
26907;DHT22;14472;56.880;16.658;2022-10-20T08:10:58;10.90;1.00
26907;DHT22;14472;56.880;16.658;2022-10-20T08:13:25;10.90;1.00
26907;DHT22;14472;56.880;16.658;2022-10-20T08:15:51;11.00;1.00
26907;DHT22;14472;56.880;16.658;2022-10-20T08:18:17;11.00;1.00
26907;DHT22;14472;56.880;16.658;2022-10-20T08:20:43;11.00;1.00
26907;DHT22;14472;56.880;16.658;2022-10-20T08:23:13;11.10;1.00
26907;DHT22;14472;56.880;16.658;2022-10-20T08:25:39;11.20;1.00
26907;DHT22;14472;56.880;16.658;2022-10-20T08:28:06;11.10;1.00
26907;DHT22;14472;56.880;16.658;2022-10-20T08:30:31;11.00;1.00
26907;DHT22;14472;56.880;16.658;2022-10-20T08:32:57;11.00;1.00
26907;DHT22;14472;56.880;16.658;2022-10-20T08:35:23;11.00;1.00
26907;DHT22;14472;56.880;16.658;2022-10-20T08:37:49;11.00;1.00
26907;DHT22;14472;56.880;16.658;2022-10-20T08:40:24;11.10;1.00
26907;DHT22;14472;56.880;16.658;2022-10-20T08:42:51;11.30;1.00
26907;DHT22;14472;56.880;16.658;2022-10-20T08:45:19;11.40;1.00
26907;DHT22;14472;56.880;16.658;2022-10-20T08:47:48;11.50;1.00
26907;DHT22;14472;56.880;16.658;2022-10-20T08:50:15;11.40;1.00
26907;DHT22;14472;56.880;16.658;2022-10-20T08:52:43;11.50;1.00
26907;DHT22;14472;56.880;16.658;2022-10-20T08:58:06;11.70;1.00
26907;DHT22;14472;56.880;16.658;2022-10-20T09:00:36;11.60;1.00
26907;DHT22;14472;56.880;16.658;2022-10-20T09:03:15;11.70;1.00
26907;DHT22;14472;56.880;16.658;2022-10-20T09:05:45;11.70;1.00
26907;DHT22;14472;56.880;16.658;2022-10-20T09:08:11;11.80;1.00
26907;DHT22;14472;56.880;16.658;2022-10-20T09:10:47;11.90;1.00
26907;DHT22;14472;56.880;16.658;2022-10-20T09:13:26;12.00;1.00
26907;DHT22;14472;56.880;16.658;2022-10-20T09:15:56;12.00;1.00
26907;DHT22;14472;56.880;16.658;2022-10-20T09:18:23;11.90;1.00
26907;DHT22;14472;56.880;16.658;2022-10-20T09:20:56;12.00;1.00
26907;DHT22;14472;56.880;16.658;2022-10-20T09:23:29;12.10;1.00
26907;DHT22;14472;56.880;16.658;2022-10-20T09:25:55;12.10;1.00
26907;DHT22;14472;56.880;16.658;2022-10-20T09:28:24;12.10;1.00
26907;DHT22;14472;56.880;16.658;2022-10-20T09:30:51;12.20;1.00
26907;DHT22;14472;56.880;16.658;2022-10-20T09:33:29;12.20;1.00
26907;DHT22;14472;56.880;16.658;2022-10-20T09:36:11;12.20;1.00
26907;DHT22;14472;56.880;16.658;2022-10-20T09:38:42;12.30;1.00
26907;DHT22;14472;56.880;16.658;2022-10-20T09:41:22;12.30;1.00
26907;DHT22;14472;56.880;16.658;2022-10-20T09:43:54;12.40;1.00
26907;DHT22;14472;56.880;16.658;2022-10-20T09:46:24;12.50;1.00
26907;DHT22;14472;56.880;16.658;2022-10-20T09:48:51;12.50;1.00
26907;DHT22;14472;56.880;16.658;2022-10-20T09:51:23;12.60;1.00
26907;DHT22;14472;56.880;16.658;2022-10-20T09:56:33;12.60;1.00
26907;DHT22;14472;56.880;16.658;2022-10-20T09:59:01;12.60;1.00
26907;DHT22;14472;56.880;16.658;2022-10-20T10:01:27;12.60;1.00
26907;DHT22;14472;56.880;16.658;2022-10-20T10:03:55;12.60;1.00
26907;DHT22;14472;56.880;16.658;2022-10-20T10:06:28;12.70;1.00
26907;DHT22;14472;56.880;16.658;2022-10-20T10:08:56;12.70;1.00
26907;DHT22;14472;56.880;16.658;2022-10-20T10:11:31;12.80;1.00
26907;DHT22;14472;56.880;16.658;2022-10-20T10:13:58;12.90;1.00
26907;DHT22;14472;56.880;16.658;2022-10-20T10:16:24;12.80;1.00
26907;DHT22;14472;56.880;16.658;2022-10-20T10:18:58;12.80;1.00
26907;DHT22;14472;56.880;16.658;2022-10-20T10:21:29;12.80;1.00
26907;DHT22;14472;56.880;16.658;2022-10-20T10:24:10;12.90;1.00
26907;DHT22;14472;56.880;16.658;2022-10-20T10:26:52;13.00;1.00
26907;DHT22;14472;56.880;16.658;2022-10-20T10:37:35;13.00;1.00
26907;DHT22;14472;56.880;16.658;2022-10-20T10:40:15;12.90;1.00
26907;DHT22;14472;56.880;16.658;2022-10-20T10:51:52;12.90;1.00
26907;DHT22;14472;56.880;16.658;2022-10-20T10:57:39;12.80;1.00
26907;DHT22;14472;56.880;16.658;2022-10-20T11:24:16;13.00;1.00
26907;DHT22;14472;56.880;16.658;2022-10-20T11:26:52;13.00;1.00
26907;DHT22;14472;56.880;16.658;2022-10-20T11:30:00;13.10;1.00
26907;DHT22;14472;56.880;16.658;2022-10-20T11:40:13;13.20;1.00
26907;DHT22;14472;56.880;16.658;2022-10-20T11:45:49;13.20;1.00
26907;DHT22;14472;56.880;16.658;2022-10-20T11:48:27;13.30;1.00
26907;DHT22;14472;56.880;16.658;2022-10-20T12:11:29;13.50;1.00
26907;DHT22;14472;56.880;16.658;2022-10-20T12:19:33;13.30;1.00
26907;DHT22;14472;56.880;16.658;2022-10-20T12:24:41;13.40;1.00
26907;DHT22;14472;56.880;16.658;2022-10-20T12:34:53;13.60;1.00
26907;DHT22;14472;56.880;16.658;2022-10-20T12:39:55;13.40;1.00
26907;DHT22;14472;56.880;16.658;2022-10-20T12:42:21;13.50;1.00
26907;DHT22;14472;56.880;16.658;2022-10-20T12:44:49;13.50;1.00
26907;DHT22;14472;56.880;16.658;2022-10-20T12:47:24;13.50;1.00
26907;DHT22;14472;56.880;16.658;2022-10-20T12:50:05;13.60;1.00
26907;DHT22;14472;56.880;16.658;2022-10-20T12:52:37;13.60;1.00
26907;DHT22;14472;56.880;16.658;2022-10-20T12:55:36;13.60;1.00
26907;DHT22;14472;56.880;16.658;2022-10-20T13:03:39;13.50;1.00
26907;DHT22;14472;56.880;16.658;2022-10-20T13:09:21;13.50;1.00
26907;DHT22;14472;56.880;16.658;2022-10-20T13:11:59;13.50;1.00
26907;DHT22;14472;56.880;16.658;2022-10-20T13:14:45;13.50;1.00
26907;DHT22;14472;56.880;16.658;2022-10-20T13:17:19;13.50;1.00
26907;DHT22;14472;56.880;16.658;2022-10-20T13:19:59;13.50;1.00
26907;DHT22;14472;56.880;16.658;2022-10-20T13:22:31;13.50;1.00
26907;DHT22;14472;56.880;16.658;2022-10-20T13:24:59;13.40;1.00
26907;DHT22;14472;56.880;16.658;2022-10-20T13:27:28;13.30;1.00
26907;DHT22;14472;56.880;16.658;2022-10-20T13:29:54;13.40;1.00
26907;DHT22;14472;56.880;16.658;2022-10-20T13:35:27;13.30;1.00
26907;DHT22;14472;56.880;16.658;2022-10-20T13:38:11;13.30;1.00
26907;DHT22;14472;56.880;16.658;2022-10-20T13:45:59;13.20;1.00
26907;DHT22;14472;56.880;16.658;2022-10-20T13:48:46;13.20;1.00
26907;DHT22;14472;56.880;16.658;2022-10-20T13:51:26;13.20;1.00
26907;DHT22;14472;56.880;16.658;2022-10-20T13:53:56;13.20;1.00
26907;DHT22;14472;56.880;16.658;2022-10-20T13:56:47;13.20;1.00
26907;DHT22;14472;56.880;16.658;2022-10-20T14:01:45;13.10;1.00
26907;DHT22;14472;56.880;16.658;2022-10-20T14:04:27;13.10;1.00
26907;DHT22;14472;56.880;16.658;2022-10-20T14:06:53;13.00;1.00
26907;DHT22;14472;56.880;16.658;2022-10-20T14:09:22;13.00;1.00
26907;DHT22;14472;56.880;16.658;2022-10-20T14:12:17;13.00;1.00
26907;DHT22;14472;56.880;16.658;2022-10-20T14:14:45;13.00;1.00
26907;DHT22;14472;56.880;16.658;2022-10-20T14:17:18;13.00;1.00
26907;DHT22;14472;56.880;16.658;2022-10-20T14:19:44;13.00;1.00
26907;DHT22;14472;56.880;16.658;2022-10-20T14:22:18;12.90;1.00
26907;DHT22;14472;56.880;16.658;2022-10-20T14:24:46;12.90;1.00
26907;DHT22;14472;56.880;16.658;2022-10-20T14:27:28;12.90;1.00
26907;DHT22;14472;56.880;16.658;2022-10-20T14:29:55;12.90;1.00
26907;DHT22;14472;56.880;16.658;2022-10-20T14:32:38;12.90;1.00
26907;DHT22;14472;56.880;16.658;2022-10-20T14:37:58;12.80;1.00
26907;DHT22;14472;56.880;16.658;2022-10-20T14:40:32;12.80;1.00
26907;DHT22;14472;56.880;16.658;2022-10-20T14:43:20;12.80;1.00
26907;DHT22;14472;56.880;16.658;2022-10-20T14:45:55;12.70;1.00
26907;DHT22;14472;56.880;16.658;2022-10-20T14:48:22;12.70;1.00
26907;DHT22;14472;56.880;16.658;2022-10-20T14:50:50;12.60;1.00
26907;DHT22;14472;56.880;16.658;2022-10-20T14:53:29;12.60;1.00
26907;DHT22;14472;56.880;16.658;2022-10-20T14:55:57;12.60;1.00
26907;DHT22;14472;56.880;16.658;2022-10-20T14:58:33;12.60;1.00
26907;DHT22;14472;56.880;16.658;2022-10-20T15:01:16;12.50;1.00
26907;DHT22;14472;56.880;16.658;2022-10-20T15:03:42;12.50;1.00
26907;DHT22;14472;56.880;16.658;2022-10-20T15:06:11;12.40;1.00
26907;DHT22;14472;56.880;16.658;2022-10-20T15:08:37;12.40;1.00
26907;DHT22;14472;56.880;16.658;2022-10-20T15:11:19;12.30;1.00
26907;DHT22;14472;56.880;16.658;2022-10-20T15:13:50;12.30;1.00
26907;DHT22;14472;56.880;16.658;2022-10-20T15:16:45;12.20;1.00
26907;DHT22;14472;56.880;16.658;2022-10-20T15:19:32;12.20;1.00
26907;DHT22;14472;56.880;16.658;2022-10-20T15:24:31;12.10;1.00
26907;DHT22;14472;56.880;16.658;2022-10-20T15:26:58;12.00;1.00
26907;DHT22;14472;56.880;16.658;2022-10-20T15:29:25;12.00;1.00
26907;DHT22;14472;56.880;16.658;2022-10-20T15:31:51;12.00;1.00
26907;DHT22;14472;56.880;16.658;2022-10-20T15:34:18;11.90;1.00
26907;DHT22;14472;56.880;16.658;2022-10-20T15:36:44;11.80;1.00
26907;DHT22;14472;56.880;16.658;2022-10-20T15:39:11;11.70;1.00
26907;DHT22;14472;56.880;16.658;2022-10-20T15:41:37;11.70;1.00
26907;DHT22;14472;56.880;16.658;2022-10-20T15:44:10;11.60;1.00
26907;DHT22;14472;56.880;16.658;2022-10-20T15:46:37;11.60;1.00
26907;DHT22;14472;56.880;16.658;2022-10-20T15:49:02;11.40;1.00
26907;DHT22;14472;56.880;16.658;2022-10-20T15:51:30;11.40;1.00
26907;DHT22;14472;56.880;16.658;2022-10-20T15:53:57;11.30;1.00
26907;DHT22;14472;56.880;16.658;2022-10-20T15:56:22;11.30;1.00
26907;DHT22;14472;56.880;16.658;2022-10-20T15:58:48;11.20;1.00
26907;DHT22;14472;56.880;16.658;2022-10-20T16:01:15;11.20;1.00
26907;DHT22;14472;56.880;16.658;2022-10-20T16:03:44;11.10;1.00
26907;DHT22;14472;56.880;16.658;2022-10-20T16:06:11;11.00;1.00
26907;DHT22;14472;56.880;16.658;2022-10-20T16:08:38;10.90;1.00
26907;DHT22;14472;56.880;16.658;2022-10-20T16:11:05;10.80;1.00
26907;DHT22;14472;56.880;16.658;2022-10-20T16:13:31;10.80;1.00
26907;DHT22;14472;56.880;16.658;2022-10-20T16:15:58;10.70;1.00
26907;DHT22;14472;56.880;16.658;2022-10-20T16:18:24;10.70;1.00
26907;DHT22;14472;56.880;16.658;2022-10-20T16:20:50;10.60;1.00
26907;DHT22;14472;56.880;16.658;2022-10-20T16:23:15;10.50;1.00
26907;DHT22;14472;56.880;16.658;2022-10-20T16:25:41;10.50;1.00
26907;DHT22;14472;56.880;16.658;2022-10-20T16:28:07;10.50;1.00
26907;DHT22;14472;56.880;16.658;2022-10-20T16:30:36;10.40;1.00
26907;DHT22;14472;56.880;16.658;2022-10-20T16:33:02;10.40;1.00
26907;DHT22;14472;56.880;16.658;2022-10-20T16:35:28;10.30;1.00
26907;DHT22;14472;56.880;16.658;2022-10-20T16:37:54;10.20;1.00
26907;DHT22;14472;56.880;16.658;2022-10-20T16:40:19;10.20;1.00
26907;DHT22;14472;56.880;16.658;2022-10-20T16:42:45;10.10;1.00
26907;DHT22;14472;56.880;16.658;2022-10-20T16:45:11;10.10;1.00
26907;DHT22;14472;56.880;16.658;2022-10-20T16:47:36;10.00;1.00
26907;DHT22;14472;56.880;16.658;2022-10-20T16:50:02;10.00;1.00
26907;DHT22;14472;56.880;16.658;2022-10-20T16:52:28;10.00;1.00
26907;DHT22;14472;56.880;16.658;2022-10-20T16:54:54;9.90;1.00
26907;DHT22;14472;56.880;16.658;2022-10-20T16:57:20;9.90;1.00
26907;DHT22;14472;56.880;16.658;2022-10-20T16:59:45;9.80;1.00
26907;DHT22;14472;56.880;16.658;2022-10-20T17:02:16;9.80;1.00
26907;DHT22;14472;56.880;16.658;2022-10-20T17:04:51;9.80;1.00
26907;DHT22;14472;56.880;16.658;2022-10-20T17:07:17;9.70;1.00
26907;DHT22;14472;56.880;16.658;2022-10-20T17:09:43;9.60;1.00
26907;DHT22;14472;56.880;16.658;2022-10-20T17:12:09;9.60;1.00
26907;DHT22;14472;56.880;16.658;2022-10-20T17:14:35;9.60;1.00
26907;DHT22;14472;56.880;16.658;2022-10-20T17:17:00;9.50;1.00
26907;DHT22;14472;56.880;16.658;2022-10-20T17:19:26;9.50;1.00
26907;DHT22;14472;56.880;16.658;2022-10-20T17:21:52;9.40;1.00
26907;DHT22;14472;56.880;16.658;2022-10-20T17:24:17;9.40;1.00
26907;DHT22;14472;56.880;16.658;2022-10-20T17:26:43;9.30;1.00
26907;DHT22;14472;56.880;16.658;2022-10-20T17:29:09;9.30;1.00
26907;DHT22;14472;56.880;16.658;2022-10-20T17:31:36;9.30;1.00
26907;DHT22;14472;56.880;16.658;2022-10-20T17:34:03;9.30;1.00
26907;DHT22;14472;56.880;16.658;2022-10-20T17:36:29;9.20;1.00
26907;DHT22;14472;56.880;16.658;2022-10-20T17:38:57;9.20;1.00
26907;DHT22;14472;56.880;16.658;2022-10-20T17:41:23;9.20;1.00
26907;DHT22;14472;56.880;16.658;2022-10-20T17:43:50;9.20;1.00
26907;DHT22;14472;56.880;16.658;2022-10-20T17:46:17;9.10;1.00
26907;DHT22;14472;56.880;16.658;2022-10-20T17:48:44;9.10;1.00
26907;DHT22;14472;56.880;16.658;2022-10-20T17:51:17;9.10;1.00
26907;DHT22;14472;56.880;16.658;2022-10-20T17:53:46;9.10;1.00
26907;DHT22;14472;56.880;16.658;2022-10-20T17:56:26;9.10;1.00
26907;DHT22;14472;56.880;16.658;2022-10-20T17:58:54;9.10;1.00
26907;DHT22;14472;56.880;16.658;2022-10-20T18:01:23;9.10;1.00
26907;DHT22;14472;56.880;16.658;2022-10-20T18:03:57;9.00;1.00
26907;DHT22;14472;56.880;16.658;2022-10-20T18:06:25;9.00;1.00
26907;DHT22;14472;56.880;16.658;2022-10-20T18:08:55;9.00;1.00
26907;DHT22;14472;56.880;16.658;2022-10-20T18:11:27;9.00;1.00
26907;DHT22;14472;56.880;16.658;2022-10-20T18:13:54;8.90;1.00
26907;DHT22;14472;56.880;16.658;2022-10-20T18:16:26;8.90;1.00
26907;DHT22;14472;56.880;16.658;2022-10-20T18:18:54;8.90;1.00
26907;DHT22;14472;56.880;16.658;2022-10-20T18:21:21;8.80;1.00